sensor_id;sensor_type;location;lat;lon;timestamp;pressure;altitude;pressure_sealevel;temperature;humidity
23619;BME280;18207;32.078;34.818;2023-01-29T00:01:29;100935.78;;;24.87;41.59
23619;BME280;18207;32.078;34.818;2023-01-29T00:03:59;100943.41;;;24.86;41.74
23619;BME280;18207;32.078;34.818;2023-01-29T00:06:29;100943.78;;;24.85;41.61
23619;BME280;18207;32.078;34.818;2023-01-29T00:09:02;100936.84;;;24.82;41.58
23619;BME280;18207;32.078;34.818;2023-01-29T00:11:34;100940.88;;;24.81;41.41
23619;BME280;18207;32.078;34.818;2023-01-29T00:14:05;100950.47;;;24.80;41.96
23619;BME280;18207;32.078;34.818;2023-01-29T00:16:35;100955.25;;;24.80;41.81
23619;BME280;18207;32.078;34.818;2023-01-29T00:19:06;100950.00;;;24.78;41.71
23619;BME280;18207;32.078;34.818;2023-01-29T00:21:36;100941.94;;;24.77;41.70
23619;BME280;18207;32.078;34.818;2023-01-29T00:24:08;100945.09;;;24.75;41.81
23619;BME280;18207;32.078;34.818;2023-01-29T00:26:38;100944.63;;;24.73;41.71
23619;BME280;18207;32.078;34.818;2023-01-29T00:29:10;100948.63;;;24.72;41.83
23619;BME280;18207;32.078;34.818;2023-01-29T00:31:44;100955.44;;;24.71;42.03
23619;BME280;18207;32.078;34.818;2023-01-29T00:34:14;100951.00;;;24.70;41.75
23619;BME280;18207;32.078;34.818;2023-01-29T00:36:44;100952.97;;;24.70;41.99
23619;BME280;18207;32.078;34.818;2023-01-29T00:39:16;100965.38;;;24.69;42.04
23619;BME280;18207;32.078;34.818;2023-01-29T00:42:03;100965.75;;;24.67;42.02
23619;BME280;18207;32.078;34.818;2023-01-29T00:44:49;100960.50;;;24.66;41.94
23619;BME280;18207;32.078;34.818;2023-01-29T00:47:29;100962.47;;;24.65;42.12
23619;BME280;18207;32.078;34.818;2023-01-29T00:50:01;100950.44;;;24.65;42.16
23619;BME280;18207;32.078;34.818;2023-01-29T00:52:32;100951.59;;;24.64;42.03
23619;BME280;18207;32.078;34.818;2023-01-29T00:55:07;100947.97;;;24.63;41.88
23619;BME280;18207;32.078;34.818;2023-01-29T00:57:39;100950.34;;;24.61;42.04
23619;BME280;18207;32.078;34.818;2023-01-29T01:00:12;100955.94;;;24.61;41.92
23619;BME280;18207;32.078;34.818;2023-01-29T01:02:44;100953.47;;;24.60;42.40
23619;BME280;18207;32.078;34.818;2023-01-29T01:05:31;100956.66;;;24.58;42.29
23619;BME280;18207;32.078;34.818;2023-01-29T01:08:02;100961.44;;;24.58;41.96
23619;BME280;18207;32.078;34.818;2023-01-29T01:11:03;100961.81;;;24.56;42.29
23619;BME280;18207;32.078;34.818;2023-01-29T01:13:32;100958.53;;;24.54;42.02
23619;BME280;18207;32.078;34.818;2023-01-29T01:16:09;100949.63;;;24.52;42.47
23619;BME280;18207;32.078;34.818;2023-01-29T01:18:40;100950.84;;;24.51;42.31
23619;BME280;18207;32.078;34.818;2023-01-29T01:21:10;100957.63;;;24.50;42.13
23619;BME280;18207;32.078;34.818;2023-01-29T01:23:40;100953.19;;;24.49;42.29
23619;BME280;18207;32.078;34.818;2023-01-29T01:26:12;100955.53;;;24.47;42.28
23619;BME280;18207;32.078;34.818;2023-01-29T01:28:42;100944.53;;;24.42;42.27
23619;BME280;18207;32.078;34.818;2023-01-29T01:31:13;100946.75;;;24.37;42.36
23619;BME280;18207;32.078;34.818;2023-01-29T01:33:45;100950.97;;;24.31;42.56
23619;BME280;18207;32.078;34.818;2023-01-29T01:36:15;100949.25;;;24.26;42.56
23619;BME280;18207;32.078;34.818;2023-01-29T01:38:45;100951.16;;;24.22;42.36
23619;BME280;18207;32.078;34.818;2023-01-29T01:41:19;100944.22;;;24.20;42.38
23619;BME280;18207;32.078;34.818;2023-01-29T01:43:53;100945.75;;;24.17;42.05
23619;BME280;18207;32.078;34.818;2023-01-29T01:46:27;100940.03;;;24.14;42.49
23619;BME280;18207;32.078;34.818;2023-01-29T01:49:02;100948.00;;;24.12;42.36
23619;BME280;18207;32.078;34.818;2023-01-29T01:51:39;100937.47;;;24.09;42.35
23619;BME280;18207;32.078;34.818;2023-01-29T01:54:17;100946.25;;;24.08;42.83
23619;BME280;18207;32.078;34.818;2023-01-29T01:56:55;100951.41;;;24.06;42.66
23619;BME280;18207;32.078;34.818;2023-01-29T01:59:33;100945.31;;;24.04;42.75
23619;BME280;18207;32.078;34.818;2023-01-29T02:02:05;100939.69;;;24.04;42.80
23619;BME280;18207;32.078;34.818;2023-01-29T02:04:53;100946.50;;;24.03;42.62
23619;BME280;18207;32.078;34.818;2023-01-29T02:07:42;100941.22;;;24.01;42.60
23619;BME280;18207;32.078;34.818;2023-01-29T02:10:40;100933.97;;;24.00;42.85
23619;BME280;18207;32.078;34.818;2023-01-29T02:13:14;100946.03;;;24.01;42.62
23619;BME280;18207;32.078;34.818;2023-01-29T02:15:46;100940.75;;;23.99;42.45
23619;BME280;18207;32.078;34.818;2023-01-29T02:18:19;100949.19;;;23.99;42.89
23619;BME280;18207;32.078;34.818;2023-01-29T02:21:12;100944.28;;;23.96;42.78
23619;BME280;18207;32.078;34.818;2023-01-29T02:24:27;100948.59;;;23.94;42.41
23619;BME280;18207;32.078;34.818;2023-01-29T02:27:09;100945.00;;;23.93;42.88
23619;BME280;18207;32.078;34.818;2023-01-29T02:29:55;100944.19;;;23.93;42.99
23619;BME280;18207;32.078;34.818;2023-01-29T02:32:39;100950.50;;;23.90;43.01
23619;BME280;18207;32.078;34.818;2023-01-29T02:35:28;100949.56;;;23.86;42.81
23619;BME280;18207;32.078;34.818;2023-01-29T02:38:17;100953.09;;;23.83;42.96
23619;BME280;18207;32.078;34.818;2023-01-29T02:40:56;100952.94;;;23.79;42.93
23619;BME280;18207;32.078;34.818;2023-01-29T02:43:35;100954.16;;;23.78;43.26
23619;BME280;18207;32.078;34.818;2023-01-29T02:46:17;100961.72;;;23.78;42.63
23619;BME280;18207;32.078;34.818;2023-01-29T02:49:00;100960.09;;;23.77;42.93
23619;BME280;18207;32.078;34.818;2023-01-29T02:51:43;100950.03;;;23.76;42.71
23619;BME280;18207;32.078;34.818;2023-01-29T02:54:20;100957.66;;;23.75;43.10
23619;BME280;18207;32.078;34.818;2023-01-29T02:56:58;100962.75;;;23.73;43.01
23619;BME280;18207;32.078;34.818;2023-01-29T02:59:36;100957.97;;;23.74;42.85
23619;BME280;18207;32.078;34.818;2023-01-29T03:02:16;100962.44;;;23.75;43.35
23619;BME280;18207;32.078;34.818;2023-01-29T03:05:00;100959.63;;;23.75;42.95
23619;BME280;18207;32.078;34.818;2023-01-29T03:07:39;100962.44;;;23.75;43.15
23619;BME280;18207;32.078;34.818;2023-01-29T03:10:18;100964.41;;;23.74;43.09
23619;BME280;18207;32.078;34.818;2023-01-29T03:12:54;100973.19;;;23.73;43.21
23619;BME280;18207;32.078;34.818;2023-01-29T03:15:33;100962.75;;;23.73;43.02
23619;BME280;18207;32.078;34.818;2023-01-29T03:18:16;100969.22;;;23.74;43.29
23619;BME280;18207;32.078;34.818;2023-01-29T03:20:53;100960.78;;;23.74;43.14
23619;BME280;18207;32.078;34.818;2023-01-29T03:23:29;100957.16;;;23.73;43.25
23619;BME280;18207;32.078;34.818;2023-01-29T03:26:20;100959.84;;;23.70;43.33
23619;BME280;18207;32.078;34.818;2023-01-29T03:29:09;100962.53;;;23.66;43.47
23619;BME280;18207;32.078;34.818;2023-01-29T03:31:58;100957.97;;;23.62;43.42
23619;BME280;18207;32.078;34.818;2023-01-29T03:34:40;100951.91;;;23.60;43.48
23619;BME280;18207;32.078;34.818;2023-01-29T03:37:20;100957.03;;;23.58;43.09
23619;BME280;18207;32.078;34.818;2023-01-29T03:39:51;100956.66;;;23.59;43.16
23619;BME280;18207;32.078;34.818;2023-01-29T03:42:26;100955.88;;;23.59;43.91
23619;BME280;18207;32.078;34.818;2023-01-29T03:45:09;100972.69;;;23.59;43.64
23619;BME280;18207;32.078;34.818;2023-01-29T03:47:46;100974.34;;;23.60;43.71
23619;BME280;18207;32.078;34.818;2023-01-29T03:50:33;100974.81;;;23.62;43.26
23619;BME280;18207;32.078;34.818;2023-01-29T03:53:14;100977.25;;;23.63;43.60
23619;BME280;18207;32.078;34.818;2023-01-29T03:55:56;100966.03;;;23.63;43.51
23619;BME280;18207;32.078;34.818;2023-01-29T03:58:39;100982.50;;;23.65;43.71
23619;BME280;18207;32.078;34.818;2023-01-29T04:01:18;100975.28;;;23.64;43.99
23619;BME280;18207;32.078;34.818;2023-01-29T04:03:57;100986.16;;;23.65;43.62
23619;BME280;18207;32.078;34.818;2023-01-29T04:06:36;100984.50;;;23.64;43.54
23619;BME280;18207;32.078;34.818;2023-01-29T04:09:15;100988.47;;;23.63;43.85
23619;BME280;18207;32.078;34.818;2023-01-29T04:11:56;100992.47;;;23.62;43.79
23619;BME280;18207;32.078;34.818;2023-01-29T04:14:31;101000.88;;;23.62;43.71
23619;BME280;18207;32.078;34.818;2023-01-29T04:17:11;101007.66;;;23.61;43.92
23619;BME280;18207;32.078;34.818;2023-01-29T04:19:41;101011.63;;;23.60;44.15
23619;BME280;18207;32.078;34.818;2023-01-29T04:22:19;100991.97;;;23.60;44.03
23619;BME280;18207;32.078;34.818;2023-01-29T04:24:51;100989.41;;;23.55;43.51
23619;BME280;18207;32.078;34.818;2023-01-29T04:27:31;101000.53;;;23.52;43.89
23619;BME280;18207;32.078;34.818;2023-01-29T04:30:21;100986.03;;;23.50;43.84
23619;BME280;18207;32.078;34.818;2023-01-29T04:33:12;100987.56;;;23.47;43.76
23619;BME280;18207;32.078;34.818;2023-01-29T04:36:02;100993.84;;;23.44;43.83
23619;BME280;18207;32.078;34.818;2023-01-29T04:38:56;101010.56;;;23.41;43.92
23619;BME280;18207;32.078;34.818;2023-01-29T04:41:35;101026.09;;;23.38;44.10
23619;BME280;18207;32.078;34.818;2023-01-29T04:44:17;101002.03;;;23.37;43.70
23619;BME280;18207;32.078;34.818;2023-01-29T04:46:58;100990.34;;;23.35;44.15
23619;BME280;18207;32.078;34.818;2023-01-29T04:49:41;100971.88;;;23.34;43.77
23619;BME280;18207;32.078;34.818;2023-01-29T04:52:31;100960.16;;;23.32;43.87
23619;BME280;18207;32.078;34.818;2023-01-29T04:55:16;100981.69;;;23.29;44.12
23619;BME280;18207;32.078;34.818;2023-01-29T04:57:58;101003.16;;;23.25;43.93
23619;BME280;18207;32.078;34.818;2023-01-29T05:00:36;101007.81;;;23.21;44.13
23619;BME280;18207;32.078;34.818;2023-01-29T05:03:08;101010.97;;;23.19;44.07
23619;BME280;18207;32.078;34.818;2023-01-29T05:05:44;100995.00;;;23.20;44.00
23619;BME280;18207;32.078;34.818;2023-01-29T05:08:20;100977.34;;;23.19;43.69
23619;BME280;18207;32.078;34.818;2023-01-29T05:10:54;100974.06;;;23.17;44.10
23619;BME280;18207;32.078;34.818;2023-01-29T05:13:30;100966.81;;;23.16;43.74
23619;BME280;18207;32.078;34.818;2023-01-29T05:16:04;100982.69;;;23.12;43.90
23619;BME280;18207;32.078;34.818;2023-01-29T05:18:38;100998.25;;;23.10;44.11
23619;BME280;18207;32.078;34.818;2023-01-29T05:21:08;100985.03;;;23.10;44.13
23619;BME280;18207;32.078;34.818;2023-01-29T05:23:38;100985.03;;;23.10;44.01
23619;BME280;18207;32.078;34.818;2023-01-29T05:26:28;100991.78;;;23.09;43.77
23619;BME280;18207;32.078;34.818;2023-01-29T05:29:15;100984.06;;;23.06;44.22
23619;BME280;18207;32.078;34.818;2023-01-29T05:31:45;100978.47;;;23.06;44.21
23619;BME280;18207;32.078;34.818;2023-01-29T05:34:15;100993.78;;;23.09;44.40
23619;BME280;18207;32.078;34.818;2023-01-29T05:36:45;100996.25;;;23.10;43.85
23619;BME280;18207;32.078;34.818;2023-01-29T05:39:16;101004.78;;;23.14;44.33
23619;BME280;18207;32.078;34.818;2023-01-29T05:41:48;101002.56;;;23.19;44.58
23619;BME280;18207;32.078;34.818;2023-01-29T05:44:18;101002.47;;;23.28;44.19
23619;BME280;18207;32.078;34.818;2023-01-29T05:46:50;101011.25;;;23.38;44.58
23619;BME280;18207;32.078;34.818;2023-01-29T05:49:20;101032.91;;;23.49;44.65
23619;BME280;18207;32.078;34.818;2023-01-29T05:51:51;101057.47;;;23.64;44.97
23619;BME280;18207;32.078;34.818;2023-01-29T05:54:21;101042.75;;;23.79;44.92
23619;BME280;18207;32.078;34.818;2023-01-29T05:56:52;101032.03;;;23.93;44.91
23619;BME280;18207;32.078;34.818;2023-01-29T05:59:23;101023.59;;;24.05;44.93
23619;BME280;18207;32.078;34.818;2023-01-29T06:01:52;101022.84;;;24.20;45.26
23619;BME280;18207;32.078;34.818;2023-01-29T06:04:23;101027.75;;;24.35;45.01
23619;BME280;18207;32.078;34.818;2023-01-29T06:06:53;101036.75;;;24.52;45.24
23619;BME280;18207;32.078;34.818;2023-01-29T06:09:30;101029.69;;;24.70;45.06
23619;BME280;18207;32.078;34.818;2023-01-29T06:12:01;101043.19;;;24.92;45.36
23619;BME280;18207;32.078;34.818;2023-01-29T06:14:33;101031.28;;;25.10;45.16
23619;BME280;18207;32.078;34.818;2023-01-29T06:17:03;101045.13;;;25.31;45.05
23619;BME280;18207;32.078;34.818;2023-01-29T06:19:33;101046.16;;;25.54;44.88
23619;BME280;18207;32.078;34.818;2023-01-29T06:22:03;101035.13;;;25.76;44.86
23619;BME280;18207;32.078;34.818;2023-01-29T06:24:33;101022.31;;;25.94;45.00
23619;BME280;18207;32.078;34.818;2023-01-29T06:27:05;101018.72;;;26.12;44.69
23619;BME280;18207;32.078;34.818;2023-01-29T06:29:35;100992.16;;;26.29;44.83
23619;BME280;18207;32.078;34.818;2023-01-29T06:32:06;100994.56;;;26.46;44.87
23619;BME280;18207;32.078;34.818;2023-01-29T06:34:36;100975.16;;;26.60;44.59
23619;BME280;18207;32.078;34.818;2023-01-29T06:37:07;100929.50;;;26.73;44.42
23619;BME280;18207;32.078;34.818;2023-01-29T06:39:37;100873.63;;;26.79;43.94
23619;BME280;18207;32.078;34.818;2023-01-29T06:42:08;100901.75;;;26.75;43.91
23619;BME280;18207;32.078;34.818;2023-01-29T06:44:38;100931.81;;;26.68;43.58
23619;BME280;18207;32.078;34.818;2023-01-29T06:47:09;100955.88;;;26.62;43.45
23619;BME280;18207;32.078;34.818;2023-01-29T06:49:39;100939.97;;;26.54;43.16
23619;BME280;18207;32.078;34.818;2023-01-29T06:52:09;100955.94;;;26.46;42.84
23619;BME280;18207;32.078;34.818;2023-01-29T06:54:39;100947.28;;;26.39;42.95
23619;BME280;18207;32.078;34.818;2023-01-29T06:57:11;100972.94;;;26.34;42.91
23619;BME280;18207;32.078;34.818;2023-01-29T06:59:41;100997.47;;;26.34;43.08
23619;BME280;18207;32.078;34.818;2023-01-29T07:02:15;101021.31;;;26.36;42.94
23619;BME280;18207;32.078;34.818;2023-01-29T07:04:45;101020.31;;;26.44;43.15
23619;BME280;18207;32.078;34.818;2023-01-29T07:07:15;101030.28;;;26.57;43.23
23619;BME280;18207;32.078;34.818;2023-01-29T07:09:46;101023.69;;;26.69;43.45
23619;BME280;18207;32.078;34.818;2023-01-29T07:12:18;101030.72;;;26.78;43.01
23619;BME280;18207;32.078;34.818;2023-01-29T07:14:48;101029.69;;;26.86;42.97
23619;BME280;18207;32.078;34.818;2023-01-29T07:17:19;101029.09;;;26.96;42.83
23619;BME280;18207;32.078;34.818;2023-01-29T07:19:49;101029.34;;;27.06;42.93
23619;BME280;18207;32.078;34.818;2023-01-29T07:22:19;101021.44;;;27.15;42.86
23619;BME280;18207;32.078;34.818;2023-01-29T07:24:48;101019.59;;;27.23;42.79
23619;BME280;18207;32.078;34.818;2023-01-29T07:27:21;101007.25;;;27.31;42.56
23619;BME280;18207;32.078;34.818;2023-01-29T07:29:51;101009.78;;;27.36;42.50
23619;BME280;18207;32.078;34.818;2023-01-29T07:32:21;101020.00;;;27.44;42.55
23619;BME280;18207;32.078;34.818;2023-01-29T07:34:51;101037.50;;;27.53;42.43
23619;BME280;18207;32.078;34.818;2023-01-29T07:37:22;101054.19;;;27.61;42.48
23619;BME280;18207;32.078;34.818;2023-01-29T07:39:52;101052.34;;;27.69;42.51
23619;BME280;18207;32.078;34.818;2023-01-29T07:42:24;101047.94;;;27.71;42.36
23619;BME280;18207;32.078;34.818;2023-01-29T07:44:54;101044.81;;;27.76;42.14
23619;BME280;18207;32.078;34.818;2023-01-29T07:47:25;101037.22;;;27.80;41.83
23619;BME280;18207;32.078;34.818;2023-01-29T07:49:55;101034.81;;;27.82;41.79
23619;BME280;18207;32.078;34.818;2023-01-29T07:52:25;101028.38;;;27.81;41.53
23619;BME280;18207;32.078;34.818;2023-01-29T07:54:56;101016.69;;;27.83;41.66
23619;BME280;18207;32.078;34.818;2023-01-29T07:57:28;101005.50;;;27.90;41.67
23619;BME280;18207;32.078;34.818;2023-01-29T07:59:58;101002.34;;;27.95;41.61
23619;BME280;18207;32.078;34.818;2023-01-29T08:02:28;100988.28;;;27.98;41.38
23619;BME280;18207;32.078;34.818;2023-01-29T08:04:58;100975.03;;;28.02;41.38
23619;BME280;18207;32.078;34.818;2023-01-29T08:07:29;100962.56;;;28.07;41.06
23619;BME280;18207;32.078;34.818;2023-01-29T08:09:59;100954.91;;;28.07;41.09
23619;BME280;18207;32.078;34.818;2023-01-29T08:12:31;100947.63;;;28.06;40.90
23619;BME280;18207;32.078;34.818;2023-01-29T08:15:02;100942.31;;;28.01;40.46
23619;BME280;18207;32.078;34.818;2023-01-29T08:17:32;100955.19;;;27.99;40.34
23619;BME280;18207;32.078;34.818;2023-01-29T08:20:29;100979.03;;;28.01;40.62
23619;BME280;18207;32.078;34.818;2023-01-29T08:23:01;100990.44;;;28.08;40.63
23619;BME280;18207;32.078;34.818;2023-01-29T08:25:32;100986.53;;;28.16;40.85
23619;BME280;18207;32.078;34.818;2023-01-29T08:28:05;100998.03;;;28.27;40.79
23619;BME280;18207;32.078;34.818;2023-01-29T08:30:37;100990.09;;;28.36;40.75
23619;BME280;18207;32.078;34.818;2023-01-29T08:33:07;100963.53;;;28.44;40.60
23619;BME280;18207;32.078;34.818;2023-01-29T08:35:37;100952.31;;;28.51;40.22
23619;BME280;18207;32.078;34.818;2023-01-29T08:38:09;100942.31;;;28.57;40.20
23619;BME280;18207;32.078;34.818;2023-01-29T08:40:39;100923.75;;;28.59;40.14
23619;BME280;18207;32.078;34.818;2023-01-29T08:43:13;100913.63;;;28.58;40.04
23619;BME280;18207;32.078;34.818;2023-01-29T08:45:43;100920.88;;;28.56;39.75
23619;BME280;18207;32.078;34.818;2023-01-29T08:48:13;100914.38;;;28.55;39.48
23619;BME280;18207;32.078;34.818;2023-01-29T08:50:43;100905.53;;;28.57;39.37
23619;BME280;18207;32.078;34.818;2023-01-29T08:53:14;100900.31;;;28.59;39.35
23619;BME280;18207;32.078;34.818;2023-01-29T08:55:46;100880.91;;;28.61;39.01
23619;BME280;18207;32.078;34.818;2023-01-29T08:58:18;100872.84;;;28.63;39.17
23619;BME280;18207;32.078;34.818;2023-01-29T09:00:49;100872.84;;;28.63;38.73
23619;BME280;18207;32.078;34.818;2023-01-29T09:03:19;100880.53;;;28.62;38.50
23619;BME280;18207;32.078;34.818;2023-01-29T09:05:49;100887.41;;;28.61;38.47
23619;BME280;18207;32.078;34.818;2023-01-29T09:08:19;100890.22;;;28.61;38.45
23619;BME280;18207;32.078;34.818;2023-01-29T09:10:49;100894.25;;;28.60;38.39
23619;BME280;18207;32.078;34.818;2023-01-29T09:13:22;100897.53;;;28.62;38.21
23619;BME280;18207;32.078;34.818;2023-01-29T09:15:52;100901.16;;;28.63;38.28
23619;BME280;18207;32.078;34.818;2023-01-29T09:18:22;100897.13;;;28.63;38.04
23619;BME280;18207;32.078;34.818;2023-01-29T09:20:53;100900.75;;;28.64;38.08
23619;BME280;18207;32.078;34.818;2023-01-29T09:23:23;100914.09;;;28.63;37.60
23619;BME280;18207;32.078;34.818;2023-01-29T09:25:53;100910.06;;;28.64;38.10
23619;BME280;18207;32.078;34.818;2023-01-29T09:28:26;100912.50;;;28.66;37.75
23619;BME280;18207;32.078;34.818;2023-01-29T09:30:59;100903.66;;;28.67;37.91
23619;BME280;18207;32.078;34.818;2023-01-29T09:33:30;100893.91;;;28.65;37.94
23619;BME280;18207;32.078;34.818;2023-01-29T09:36:02;100873.63;;;28.60;37.67
23619;BME280;18207;32.078;34.818;2023-01-29T09:38:32;100877.22;;;28.53;37.35
23619;BME280;18207;32.078;34.818;2023-01-29T09:41:17;100876.75;;;28.48;37.56
23619;BME280;18207;32.078;34.818;2023-01-29T09:43:57;100872.56;;;28.38;37.53
23619;BME280;18207;32.078;34.818;2023-01-29T09:46:38;100857.56;;;28.34;37.65
23619;BME280;18207;32.078;34.818;2023-01-29T09:49:15;100853.91;;;28.30;37.88
23619;BME280;18207;32.078;34.818;2023-01-29T09:51:54;100850.59;;;28.25;37.60
23619;BME280;18207;32.078;34.818;2023-01-29T09:54:32;100852.19;;;28.22;37.97
23619;BME280;18207;32.078;34.818;2023-01-29T09:57:09;100871.97;;;28.22;37.63
23619;BME280;18207;32.078;34.818;2023-01-29T09:59:44;100859.00;;;28.21;37.55
23619;BME280;18207;32.078;34.818;2023-01-29T10:02:45;100852.91;;;28.19;37.61
23619;BME280;18207;32.078;34.818;2023-01-29T10:05:34;100830.25;;;28.16;37.64
23619;BME280;18207;32.078;34.818;2023-01-29T10:08:36;100814.91;;;28.13;37.49
23619;BME280;18207;32.078;34.818;2023-01-29T10:11:23;100807.97;;;28.11;37.50
23619;BME280;18207;32.078;34.818;2023-01-29T10:14:10;100798.66;;;28.07;37.38
23619;BME280;18207;32.078;34.818;2023-01-29T10:17:02;100789.31;;;28.03;37.01
23619;BME280;18207;32.078;34.818;2023-01-29T10:20:12;100785.66;;;27.99;37.17
23619;BME280;18207;32.078;34.818;2023-01-29T10:23:02;100798.94;;;27.98;37.32
23619;BME280;18207;32.078;34.818;2023-01-29T10:25:39;100809.81;;;27.96;37.03
23619;BME280;18207;32.078;34.818;2023-01-29T10:28:17;100819.44;;;27.92;37.05
23619;BME280;18207;32.078;34.818;2023-01-29T10:30:50;100839.19;;;27.88;37.14
23619;BME280;18207;32.078;34.818;2023-01-29T10:33:34;100827.44;;;27.86;37.01
23619;BME280;18207;32.078;34.818;2023-01-29T10:36:33;100789.03;;;27.82;36.72
23619;BME280;18207;32.078;34.818;2023-01-29T10:39:14;100762.78;;;27.78;36.91
23619;BME280;18207;32.078;34.818;2023-01-29T10:42:04;100780.47;;;27.75;36.90
23619;BME280;18207;32.078;34.818;2023-01-29T10:44:49;100777.63;;;27.72;36.67
23619;BME280;18207;32.078;34.818;2023-01-29T10:48:30;100759.00;;;27.67;36.87
23619;BME280;18207;32.078;34.818;2023-01-29T10:51:21;100778.72;;;27.64;36.82
23619;BME280;18207;32.078;34.818;2023-01-29T10:54:12;100768.63;;;27.63;36.58
23619;BME280;18207;32.078;34.818;2023-01-29T10:57:04;100766.97;;;27.62;36.66
23619;BME280;18207;32.078;34.818;2023-01-29T10:59:56;100771.44;;;27.63;36.55
23619;BME280;18207;32.078;34.818;2023-01-29T11:02:28;100776.63;;;27.61;36.36
23619;BME280;18207;32.078;34.818;2023-01-29T11:04:58;100787.13;;;27.60;36.43
23619;BME280;18207;32.078;34.818;2023-01-29T11:07:30;100776.63;;;27.61;36.42
23619;BME280;18207;32.078;34.818;2023-01-29T11:10:10;100779.84;;;27.59;36.48
23619;BME280;18207;32.078;34.818;2023-01-29T11:12:44;100762.84;;;27.56;36.31
23619;BME280;18207;32.078;34.818;2023-01-29T11:15:21;100757.56;;;27.54;36.28
23619;BME280;18207;32.078;34.818;2023-01-29T11:18:05;100768.44;;;27.52;36.24
23619;BME280;18207;32.078;34.818;2023-01-29T11:20:37;100760.31;;;27.47;36.17
23619;BME280;18207;32.078;34.818;2023-01-29T11:23:25;100745.31;;;27.43;36.05
23619;BME280;18207;32.078;34.818;2023-01-29T11:25:57;100737.56;;;27.37;35.87
23619;BME280;18207;32.078;34.818;2023-01-29T11:28:37;100739.13;;;27.34;36.01
23619;BME280;18207;32.078;34.818;2023-01-29T11:31:26;100739.09;;;27.31;36.07
23619;BME280;18207;32.078;34.818;2023-01-29T11:34:05;100742.31;;;27.29;36.02
23619;BME280;18207;32.078;34.818;2023-01-29T11:36:37;100743.09;;;27.30;36.17
23619;BME280;18207;32.078;34.818;2023-01-29T11:39:19;100736.66;;;27.29;35.85
23619;BME280;18207;32.078;34.818;2023-01-29T11:41:55;100719.72;;;27.29;36.12
23619;BME280;18207;32.078;34.818;2023-01-29T11:44:32;100712.44;;;27.28;36.06
23619;BME280;18207;32.078;34.818;2023-01-29T11:47:18;100692.25;;;27.26;36.00
23619;BME280;18207;32.078;34.818;2023-01-29T11:49:53;100691.03;;;27.24;36.32
23619;BME280;18207;32.078;34.818;2023-01-29T11:52:34;100680.50;;;27.21;36.10
23619;BME280;18207;32.078;34.818;2023-01-29T11:55:16;100708.28;;;27.19;35.83
23619;BME280;18207;32.078;34.818;2023-01-29T11:57:52;100711.88;;;27.16;36.17
23619;BME280;18207;32.078;34.818;2023-01-29T12:00:28;100710.59;;;27.13;36.03
23619;BME280;18207;32.078;34.818;2023-01-29T12:03:06;100717.06;;;27.14;36.12
23619;BME280;18207;32.078;34.818;2023-01-29T12:05:52;100706.59;;;27.14;36.26
23619;BME280;18207;32.078;34.818;2023-01-29T12:08:24;100705.78;;;27.14;36.38
23619;BME280;18207;32.078;34.818;2023-01-29T12:11:08;100714.25;;;27.14;36.28
23619;BME280;18207;32.078;34.818;2023-01-29T12:13:41;100711.00;;;27.12;36.26
23619;BME280;18207;32.078;34.818;2023-01-29T12:16:20;100716.19;;;27.10;36.46
23619;BME280;18207;32.078;34.818;2023-01-29T12:18:59;100707.69;;;27.06;36.26
23619;BME280;18207;32.078;34.818;2023-01-29T12:21:45;100710.91;;;27.05;36.19
23619;BME280;18207;32.078;34.818;2023-01-29T12:24:30;100697.16;;;27.03;36.10
23619;BME280;18207;32.078;34.818;2023-01-29T12:27:14;100697.91;;;27.00;36.19
23619;BME280;18207;32.078;34.818;2023-01-29T12:29:54;100707.91;;;26.98;36.37
23619;BME280;18207;32.078;34.818;2023-01-29T12:32:36;100715.97;;;26.96;36.11
23619;BME280;18207;32.078;34.818;2023-01-29T12:35:17;100708.25;;;26.93;36.17
23619;BME280;18207;32.078;34.818;2023-01-29T12:37:57;100723.09;;;26.90;36.27
23619;BME280;18207;32.078;34.818;2023-01-29T12:40:36;100713.78;;;26.86;36.28
23619;BME280;18207;32.078;34.818;2023-01-29T12:43:16;100712.91;;;26.82;36.20
23619;BME280;18207;32.078;34.818;2023-01-29T12:45:52;100731.41;;;26.80;36.16
23619;BME280;18207;32.078;34.818;2023-01-29T12:48:30;100737.81;;;26.77;36.24
23619;BME280;18207;32.078;34.818;2023-01-29T12:51:07;100734.53;;;26.75;36.21
23619;BME280;18207;32.078;34.818;2023-01-29T12:53:44;100738.53;;;26.74;35.76
23619;BME280;18207;32.078;34.818;2023-01-29T12:56:26;100703.47;;;26.71;36.03
23619;BME280;18207;32.078;34.818;2023-01-29T12:59:11;100676.84;;;26.69;36.29
23619;BME280;18207;32.078;34.818;2023-01-29T13:01:50;100668.78;;;26.67;36.58
23619;BME280;18207;32.078;34.818;2023-01-29T13:04:35;100686.50;;;26.68;36.20
23619;BME280;18207;32.078;34.818;2023-01-29T13:07:14;100685.69;;;26.67;36.28
23619;BME280;18207;32.078;34.818;2023-01-29T13:09:52;100699.78;;;26.67;36.31
23619;BME280;18207;32.078;34.818;2023-01-29T13:12:24;100715.44;;;26.65;36.22
23619;BME280;18207;32.078;34.818;2023-01-29T13:15:02;100711.38;;;26.62;36.21
23619;BME280;18207;32.078;34.818;2023-01-29T13:17:38;100722.22;;;26.60;36.27
23619;BME280;18207;32.078;34.818;2023-01-29T13:20:16;100728.63;;;26.57;36.25
23619;BME280;18207;32.078;34.818;2023-01-29T13:22:51;100712.06;;;26.56;36.35
23619;BME280;18207;32.078;34.818;2023-01-29T13:25:23;100732.97;;;26.55;36.13
23619;BME280;18207;32.078;34.818;2023-01-29T13:27:54;100728.13;;;26.52;36.24
23619;BME280;18207;32.078;34.818;2023-01-29T13:30:32;100725.66;;;26.50;36.29